sensor_id;sensor_type;location;lat;lon;timestamp;temperature;humidity
46816;DHT22;32787;53.316;8.670;2022-09-21T00:01:17;6.40;90.40
46816;DHT22;32787;53.316;8.670;2022-09-21T00:03:43;6.50;90.60
46816;DHT22;32787;53.316;8.670;2022-09-21T00:06:14;6.70;89.80
46816;DHT22;32787;53.316;8.670;2022-09-21T00:08:41;6.40;89.70
46816;DHT22;32787;53.316;8.670;2022-09-21T00:11:11;6.20;89.80
46816;DHT22;32787;53.316;8.670;2022-09-21T00:13:38;6.10;90.10
46816;DHT22;32787;53.316;8.670;2022-09-21T00:16:05;6.00;90.10
46816;DHT22;32787;53.316;8.670;2022-09-21T00:18:31;6.10;90.40
46816;DHT22;32787;53.316;8.670;2022-09-21T00:20:57;6.10;90.60
46816;DHT22;32787;53.316;8.670;2022-09-21T00:23:23;6.00;90.40
46816;DHT22;32787;53.316;8.670;2022-09-21T00:25:48;5.90;90.70
46816;DHT22;32787;53.316;8.670;2022-09-21T00:28:14;6.10;90.30
46816;DHT22;32787;53.316;8.670;2022-09-21T00:30:40;6.10;90.30
46816;DHT22;32787;53.316;8.670;2022-09-21T00:33:06;6.20;90.10
46816;DHT22;32787;53.316;8.670;2022-09-21T00:35:31;6.10;89.90
46816;DHT22;32787;53.316;8.670;2022-09-21T00:38:02;6.00;89.70
46816;DHT22;32787;53.316;8.670;2022-09-21T00:40:28;5.80;90.00
46816;DHT22;32787;53.316;8.670;2022-09-21T00:43:08;5.70;90.30
46816;DHT22;32787;53.316;8.670;2022-09-21T00:45:34;6.10;90.10
46816;DHT22;32787;53.316;8.670;2022-09-21T00:48:00;5.90;90.00
46816;DHT22;32787;53.316;8.670;2022-09-21T00:50:26;5.90;90.40
46816;DHT22;32787;53.316;8.670;2022-09-21T00:52:55;5.90;90.50
46816;DHT22;32787;53.316;8.670;2022-09-21T00:55:25;5.80;90.50
46816;DHT22;32787;53.316;8.670;2022-09-21T00:57:55;5.80;90.80
46816;DHT22;32787;53.316;8.670;2022-09-21T01:00:23;6.20;91.00
46816;DHT22;32787;53.316;8.670;2022-09-21T01:02:48;6.30;90.30
46816;DHT22;32787;53.316;8.670;2022-09-21T01:05:14;6.10;90.20
46816;DHT22;32787;53.316;8.670;2022-09-21T01:07:44;6.10;90.10
46816;DHT22;32787;53.316;8.670;2022-09-21T01:10:12;5.90;90.20
46816;DHT22;32787;53.316;8.670;2022-09-21T01:13:10;5.80;90.30
46816;DHT22;32787;53.316;8.670;2022-09-21T01:16:00;5.70;90.60
46816;DHT22;32787;53.316;8.670;2022-09-21T01:18:42;5.80;90.80
46816;DHT22;32787;53.316;8.670;2022-09-21T01:21:23;6.20;90.80
46816;DHT22;32787;53.316;8.670;2022-09-21T01:24:17;6.10;90.30
46816;DHT22;32787;53.316;8.670;2022-09-21T01:37:16;5.90;90.60
46816;DHT22;32787;53.316;8.670;2022-09-21T01:39:47;5.70;90.60
46816;DHT22;32787;53.316;8.670;2022-09-21T01:42:15;5.60;90.60
46816;DHT22;32787;53.316;8.670;2022-09-21T01:44:43;5.60;90.70
46816;DHT22;32787;53.316;8.670;2022-09-21T01:47:10;5.60;90.80
46816;DHT22;32787;53.316;8.670;2022-09-21T01:49:50;5.50;90.80
46816;DHT22;32787;53.316;8.670;2022-09-21T01:52:37;5.50;90.80
46816;DHT22;32787;53.316;8.670;2022-09-21T01:55:08;5.40;90.90
46816;DHT22;32787;53.316;8.670;2022-09-21T01:57:44;5.30;90.90
46816;DHT22;32787;53.316;8.670;2022-09-21T02:00:15;5.30;91.00
46816;DHT22;32787;53.316;8.670;2022-09-21T02:02:49;5.50;91.50
46816;DHT22;32787;53.316;8.670;2022-09-21T02:05:18;5.60;91.30
46816;DHT22;32787;53.316;8.670;2022-09-21T02:07:45;5.80;91.10
46816;DHT22;32787;53.316;8.670;2022-09-21T02:10:19;5.90;90.50
46816;DHT22;32787;53.316;8.670;2022-09-21T02:12:47;5.80;90.20
46816;DHT22;32787;53.316;8.670;2022-09-21T02:15:13;5.50;90.20
46816;DHT22;32787;53.316;8.670;2022-09-21T02:18:12;5.40;90.40
46816;DHT22;32787;53.316;8.670;2022-09-21T02:20:48;5.40;90.50
46816;DHT22;32787;53.316;8.670;2022-09-21T02:23:26;5.30;90.70
46816;DHT22;32787;53.316;8.670;2022-09-21T02:26:14;5.20;90.90
46816;DHT22;32787;53.316;8.670;2022-09-21T02:28:55;5.20;91.10
46816;DHT22;32787;53.316;8.670;2022-09-21T02:31:35;5.30;91.30
46816;DHT22;32787;53.316;8.670;2022-09-21T02:34:45;5.40;91.30
46816;DHT22;32787;53.316;8.670;2022-09-21T02:38:01;5.50;91.10
46816;DHT22;32787;53.316;8.670;2022-09-21T02:40:24;5.40;91.10
46816;DHT22;32787;53.316;8.670;2022-09-21T02:43:02;5.40;91.00
46816;DHT22;32787;53.316;8.670;2022-09-21T02:45:34;5.40;91.00
46816;DHT22;32787;53.316;8.670;2022-09-21T02:48:06;5.20;90.90
46816;DHT22;32787;53.316;8.670;2022-09-21T02:50:49;5.40;91.30
46816;DHT22;32787;53.316;8.670;2022-09-21T02:53:19;5.50;90.90
46816;DHT22;32787;53.316;8.670;2022-09-21T02:55:46;5.90;90.50
46816;DHT22;32787;53.316;8.670;2022-09-21T02:58:16;5.90;90.00
46816;DHT22;32787;53.316;8.670;2022-09-21T03:00:42;5.60;89.90
46816;DHT22;32787;53.316;8.670;2022-09-21T03:03:20;5.60;90.10
46816;DHT22;32787;53.316;8.670;2022-09-21T03:05:50;5.40;90.10
46816;DHT22;32787;53.316;8.670;2022-09-21T03:08:16;5.30;90.30
46816;DHT22;32787;53.316;8.670;2022-09-21T03:10:42;5.10;90.50
46816;DHT22;32787;53.316;8.670;2022-09-21T03:13:08;5.00;90.60
46816;DHT22;32787;53.316;8.670;2022-09-21T03:15:35;4.90;90.80
46816;DHT22;32787;53.316;8.670;2022-09-21T03:18:02;4.90;91.00
46816;DHT22;32787;53.316;8.670;2022-09-21T03:20:32;4.90;91.30
46816;DHT22;32787;53.316;8.670;2022-09-21T03:22:58;4.90;91.30
46816;DHT22;32787;53.316;8.670;2022-09-21T03:25:24;4.80;91.20
46816;DHT22;32787;53.316;8.670;2022-09-21T03:27:50;4.70;91.30
46816;DHT22;32787;53.316;8.670;2022-09-21T03:30:18;4.80;91.30
46816;DHT22;32787;53.316;8.670;2022-09-21T03:32:47;4.70;91.30
46816;DHT22;32787;53.316;8.670;2022-09-21T03:35:13;4.70;91.40
46816;DHT22;32787;53.316;8.670;2022-09-21T03:37:39;4.70;91.50
46816;DHT22;32787;53.316;8.670;2022-09-21T03:40:05;4.80;91.70
46816;DHT22;32787;53.316;8.670;2022-09-21T03:42:30;4.70;91.70
46816;DHT22;32787;53.316;8.670;2022-09-21T03:44:56;4.80;91.70
46816;DHT22;32787;53.316;8.670;2022-09-21T03:47:22;4.80;91.80
46816;DHT22;32787;53.316;8.670;2022-09-21T03:49:47;4.80;91.70
46816;DHT22;32787;53.316;8.670;2022-09-21T03:52:13;4.70;91.70
46816;DHT22;32787;53.316;8.670;2022-09-21T03:54:39;4.70;91.70
46816;DHT22;32787;53.316;8.670;2022-09-21T03:57:04;4.80;91.90
46816;DHT22;32787;53.316;8.670;2022-09-21T03:59:30;4.90;91.80
46816;DHT22;32787;53.316;8.670;2022-09-21T04:01:55;5.20;91.60
46816;DHT22;32787;53.316;8.670;2022-09-21T04:04:21;5.00;91.40
46816;DHT22;32787;53.316;8.670;2022-09-21T04:06:47;5.10;91.70
46816;DHT22;32787;53.316;8.670;2022-09-21T04:09:12;5.40;91.40
46816;DHT22;32787;53.316;8.670;2022-09-21T04:11:38;5.30;90.70
46816;DHT22;32787;53.316;8.670;2022-09-21T04:14:03;5.10;90.70
46816;DHT22;32787;53.316;8.670;2022-09-21T04:16:30;5.00;90.90
46816;DHT22;32787;53.316;8.670;2022-09-21T04:18:56;4.90;90.80
46816;DHT22;32787;53.316;8.670;2022-09-21T04:21:21;4.90;91.00
46816;DHT22;32787;53.316;8.670;2022-09-21T04:23:47;4.80;91.10
46816;DHT22;32787;53.316;8.670;2022-09-21T04:26:25;4.60;91.20
46816;DHT22;32787;53.316;8.670;2022-09-21T04:28:51;4.90;91.40
46816;DHT22;32787;53.316;8.670;2022-09-21T04:31:17;4.80;91.30
46816;DHT22;32787;53.316;8.670;2022-09-21T04:33:43;4.90;91.30
46816;DHT22;32787;53.316;8.670;2022-09-21T04:36:12;4.80;91.20
46816;DHT22;32787;53.316;8.670;2022-09-21T04:38:38;4.80;91.40
46816;DHT22;32787;53.316;8.670;2022-09-21T04:41:04;4.90;91.50
46816;DHT22;32787;53.316;8.670;2022-09-21T04:43:31;5.00;91.50
46816;DHT22;32787;53.316;8.670;2022-09-21T04:45:57;5.00;91.10
46816;DHT22;32787;53.316;8.670;2022-09-21T04:48:23;4.90;91.00
46816;DHT22;32787;53.316;8.670;2022-09-21T04:50:49;4.80;91.10
46816;DHT22;32787;53.316;8.670;2022-09-21T04:53:15;4.80;91.20
46816;DHT22;32787;53.316;8.670;2022-09-21T04:55:41;4.70;91.10
46816;DHT22;32787;53.316;8.670;2022-09-21T04:58:06;4.70;91.30
46816;DHT22;32787;53.316;8.670;2022-09-21T05:00:32;4.70;91.40
46816;DHT22;32787;53.316;8.670;2022-09-21T05:02:58;4.80;91.40
46816;DHT22;32787;53.316;8.670;2022-09-21T05:05:23;4.70;91.40
46816;DHT22;32787;53.316;8.670;2022-09-21T05:07:49;4.70;91.40
46816;DHT22;32787;53.316;8.670;2022-09-21T05:10:15;4.70;91.40
46816;DHT22;32787;53.316;8.670;2022-09-21T05:12:40;4.70;91.30
46816;DHT22;32787;53.316;8.670;2022-09-21T05:15:08;4.70;91.50
46816;DHT22;32787;53.316;8.670;2022-09-21T05:17:35;5.00;91.50
46816;DHT22;32787;53.316;8.670;2022-09-21T05:20:01;4.90;91.10
46816;DHT22;32787;53.316;8.670;2022-09-21T05:22:27;4.90;91.20
46816;DHT22;32787;53.316;8.670;2022-09-21T05:24:53;4.90;91.10
46816;DHT22;32787;53.316;8.670;2022-09-21T05:27:20;4.80;91.00
46816;DHT22;32787;53.316;8.670;2022-09-21T05:29:45;4.70;91.10
46816;DHT22;32787;53.316;8.670;2022-09-21T05:32:29;4.60;91.10
46816;DHT22;32787;53.316;8.670;2022-09-21T05:35:37;4.60;91.20
46816;DHT22;32787;53.316;8.670;2022-09-21T05:38:17;4.90;91.30
46816;DHT22;32787;53.316;8.670;2022-09-21T05:40:44;4.70;91.10
46816;DHT22;32787;53.316;8.670;2022-09-21T05:43:12;4.70;91.40
46816;DHT22;32787;53.316;8.670;2022-09-21T05:45:44;4.90;91.50
46816;DHT22;32787;53.316;8.670;2022-09-21T05:50:57;5.20;91.40
46816;DHT22;32787;53.316;8.670;2022-09-21T05:56:24;5.10;90.90
46816;DHT22;32787;53.316;8.670;2022-09-21T05:59:00;4.90;90.80
46816;DHT22;32787;53.316;8.670;2022-09-21T06:01:40;4.80;91.10
46816;DHT22;32787;53.316;8.670;2022-09-21T06:04:10;4.90;91.20
46816;DHT22;32787;53.316;8.670;2022-09-21T06:06:38;4.90;91.40
46816;DHT22;32787;53.316;8.670;2022-09-21T06:09:04;4.90;91.40
46816;DHT22;32787;53.316;8.670;2022-09-21T06:11:29;4.90;91.50
46816;DHT22;32787;53.316;8.670;2022-09-21T06:13:56;5.00;91.50
46816;DHT22;32787;53.316;8.670;2022-09-21T06:16:21;5.10;91.50
46816;DHT22;32787;53.316;8.670;2022-09-21T06:18:47;5.10;91.40
46816;DHT22;32787;53.316;8.670;2022-09-21T06:21:12;5.20;91.40
46816;DHT22;32787;53.316;8.670;2022-09-21T06:23:38;5.20;91.30
46816;DHT22;32787;53.316;8.670;2022-09-21T06:26:04;5.30;91.30
46816;DHT22;32787;53.316;8.670;2022-09-21T06:28:30;5.20;91.10
46816;DHT22;32787;53.316;8.670;2022-09-21T06:30:56;5.20;91.50
46816;DHT22;32787;53.316;8.670;2022-09-21T06:33:22;5.40;91.50
46816;DHT22;32787;53.316;8.670;2022-09-21T06:35:56;5.40;91.40
46816;DHT22;32787;53.316;8.670;2022-09-21T06:38:23;5.60;91.50
46816;DHT22;32787;53.316;8.670;2022-09-21T06:40:49;5.60;91.50
46816;DHT22;32787;53.316;8.670;2022-09-21T06:43:16;5.70;91.60
46816;DHT22;32787;53.316;8.670;2022-09-21T06:45:42;5.80;91.80
46816;DHT22;32787;53.316;8.670;2022-09-21T06:48:08;5.90;91.90
46816;DHT22;32787;53.316;8.670;2022-09-21T06:50:34;6.10;92.00
46816;DHT22;32787;53.316;8.670;2022-09-21T06:53:00;6.30;92.10
46816;DHT22;32787;53.316;8.670;2022-09-21T06:55:27;6.40;91.90
46816;DHT22;32787;53.316;8.670;2022-09-21T06:57:59;6.50;91.80
46816;DHT22;32787;53.316;8.670;2022-09-21T07:00:26;6.50;91.80
46816;DHT22;32787;53.316;8.670;2022-09-21T07:02:51;6.60;92.20
46816;DHT22;32787;53.316;8.670;2022-09-21T07:05:17;6.70;92.50
46816;DHT22;32787;53.316;8.670;2022-09-21T07:07:42;6.90;92.60
46816;DHT22;32787;53.316;8.670;2022-09-21T07:10:08;7.10;92.70
46816;DHT22;32787;53.316;8.670;2022-09-21T07:12:34;7.30;92.80
46816;DHT22;32787;53.316;8.670;2022-09-21T07:15:04;7.70;92.70
46816;DHT22;32787;53.316;8.670;2022-09-21T07:17:35;7.90;92.60
46816;DHT22;32787;53.316;8.670;2022-09-21T07:20:02;8.20;92.60
46816;DHT22;32787;53.316;8.670;2022-09-21T07:22:30;8.30;92.30
46816;DHT22;32787;53.316;8.670;2022-09-21T07:24:56;8.60;92.40
46816;DHT22;32787;53.316;8.670;2022-09-21T07:27:23;8.90;91.80
46816;DHT22;32787;53.316;8.670;2022-09-21T07:29:50;9.10;91.20
46816;DHT22;32787;53.316;8.670;2022-09-21T07:32:15;9.20;91.10
46816;DHT22;32787;53.316;8.670;2022-09-21T07:34:41;9.20;91.20
46816;DHT22;32787;53.316;8.670;2022-09-21T07:37:07;9.30;91.40
46816;DHT22;32787;53.316;8.670;2022-09-21T07:39:32;9.30;91.50
46816;DHT22;32787;53.316;8.670;2022-09-21T07:41:58;9.40;91.50
46816;DHT22;32787;53.316;8.670;2022-09-21T07:44:24;9.40;91.40
46816;DHT22;32787;53.316;8.670;2022-09-21T07:46:51;9.40;91.60
46816;DHT22;32787;53.316;8.670;2022-09-21T07:49:16;9.60;91.70
46816;DHT22;32787;53.316;8.670;2022-09-21T07:51:42;9.80;91.80
46816;DHT22;32787;53.316;8.670;2022-09-21T07:54:09;9.90;91.30
46816;DHT22;32787;53.316;8.670;2022-09-21T07:56:38;9.90;91.50
46816;DHT22;32787;53.316;8.670;2022-09-21T07:59:04;10.00;91.30
46816;DHT22;32787;53.316;8.670;2022-09-21T08:01:37;10.10;91.20
46816;DHT22;32787;53.316;8.670;2022-09-21T08:04:05;10.10;90.80
46816;DHT22;32787;53.316;8.670;2022-09-21T08:06:32;10.10;91.00
46816;DHT22;32787;53.316;8.670;2022-09-21T08:09:00;10.30;90.80
46816;DHT22;32787;53.316;8.670;2022-09-21T08:11:27;10.40;90.40
46816;DHT22;32787;53.316;8.670;2022-09-21T08:14:00;10.40;90.10
46816;DHT22;32787;53.316;8.670;2022-09-21T08:16:26;10.40;90.20
46816;DHT22;32787;53.316;8.670;2022-09-21T08:18:53;10.60;90.40
46816;DHT22;32787;53.316;8.670;2022-09-21T08:21:20;10.60;90.20
46816;DHT22;32787;53.316;8.670;2022-09-21T08:23:49;10.80;90.10
46816;DHT22;32787;53.316;8.670;2022-09-21T08:26:17;10.90;89.70
46816;DHT22;32787;53.316;8.670;2022-09-21T08:28:47;10.90;88.10
46816;DHT22;32787;53.316;8.670;2022-09-21T08:31:15;10.90;87.50
46816;DHT22;32787;53.316;8.670;2022-09-21T08:33:42;10.90;87.00
46816;DHT22;32787;53.316;8.670;2022-09-21T08:36:08;11.10;87.20
46816;DHT22;32787;53.316;8.670;2022-09-21T08:38:35;11.20;86.70
46816;DHT22;32787;53.316;8.670;2022-09-21T08:41:11;11.30;86.30
46816;DHT22;32787;53.316;8.670;2022-09-21T08:43:41;11.30;86.60
46816;DHT22;32787;53.316;8.670;2022-09-21T08:46:43;11.50;86.60
46816;DHT22;32787;53.316;8.670;2022-09-21T08:49:07;11.50;85.70
46816;DHT22;32787;53.316;8.670;2022-09-21T08:51:44;11.70;85.60
46816;DHT22;32787;53.316;8.670;2022-09-21T08:57:15;11.90;84.90
46816;DHT22;32787;53.316;8.670;2022-09-21T08:59:46;12.20;84.90
46816;DHT22;32787;53.316;8.670;2022-09-21T09:08:42;12.30;83.70
46816;DHT22;32787;53.316;8.670;2022-09-21T09:22:18;12.70;82.70
46816;DHT22;32787;53.316;8.670;2022-09-21T09:24:49;12.80;82.40
46816;DHT22;32787;53.316;8.670;2022-09-21T09:27:26;12.90;82.60
46816;DHT22;32787;53.316;8.670;2022-09-21T09:30:13;13.10;81.70
46816;DHT22;32787;53.316;8.670;2022-09-21T09:35:43;13.10;82.60
46816;DHT22;32787;53.316;8.670;2022-09-21T09:50:17;13.50;78.60
46816;DHT22;32787;53.316;8.670;2022-09-21T09:52:47;13.40;79.80
46816;DHT22;32787;53.316;8.670;2022-09-21T09:55:25;13.40;79.40
46816;DHT22;32787;53.316;8.670;2022-09-21T09:57:53;13.40;80.50
46816;DHT22;32787;53.316;8.670;2022-09-21T10:00:20;13.70;79.80
46816;DHT22;32787;53.316;8.670;2022-09-21T10:02:56;13.80;78.10
46816;DHT22;32787;53.316;8.670;2022-09-21T10:05:34;13.80;78.80
46816;DHT22;32787;53.316;8.670;2022-09-21T10:08:03;13.80;78.30
46816;DHT22;32787;53.316;8.670;2022-09-21T10:13:24;13.80;79.20
46816;DHT22;32787;53.316;8.670;2022-09-21T10:15:53;14.10;76.50
46816;DHT22;32787;53.316;8.670;2022-09-21T10:18:52;14.20;76.90
46816;DHT22;32787;53.316;8.670;2022-09-21T10:21:34;13.90;76.50
46816;DHT22;32787;53.316;8.670;2022-09-21T10:24:03;13.90;78.30
46816;DHT22;32787;53.316;8.670;2022-09-21T10:26:50;14.20;77.50
46816;DHT22;32787;53.316;8.670;2022-09-21T10:29:29;14.40;78.30
46816;DHT22;32787;53.316;8.670;2022-09-21T10:34:38;14.70;73.90
46816;DHT22;32787;53.316;8.670;2022-09-21T10:37:28;14.70;73.70
46816;DHT22;32787;53.316;8.670;2022-09-21T10:39:55;14.60;73.20
46816;DHT22;32787;53.316;8.670;2022-09-21T10:42:24;14.60;74.50
46816;DHT22;32787;53.316;8.670;2022-09-21T10:44:52;14.80;74.20
46816;DHT22;32787;53.316;8.670;2022-09-21T10:47:40;14.60;71.60
46816;DHT22;32787;53.316;8.670;2022-09-21T10:50:42;14.50;72.80
46816;DHT22;32787;53.316;8.670;2022-09-21T10:53:17;14.70;73.10
46816;DHT22;32787;53.316;8.670;2022-09-21T10:55:56;14.70;71.60
46816;DHT22;32787;53.316;8.670;2022-09-21T10:58:23;14.70;72.00
46816;DHT22;32787;53.316;8.670;2022-09-21T11:00:51;14.90;73.10
46816;DHT22;32787;53.316;8.670;2022-09-21T11:06:21;14.90;71.30
46816;DHT22;32787;53.316;8.670;2022-09-21T11:09:04;15.40;69.60
46816;DHT22;32787;53.316;8.670;2022-09-21T11:11:42;15.70;68.90
46816;DHT22;32787;53.316;8.670;2022-09-21T11:14:58;15.40;68.30
46816;DHT22;32787;53.316;8.670;2022-09-21T11:17:16;15.20;70.30
46816;DHT22;32787;53.316;8.670;2022-09-21T11:19:54;15.30;69.40
46816;DHT22;32787;53.316;8.670;2022-09-21T11:36:11;15.90;70.30
46816;DHT22;32787;53.316;8.670;2022-09-21T11:41:16;15.80;67.80
46816;DHT22;32787;53.316;8.670;2022-09-21T11:46:28;16.10;66.70
46816;DHT22;32787;53.316;8.670;2022-09-21T11:57:39;16.50;64.20
46816;DHT22;32787;53.316;8.670;2022-09-21T12:00:21;15.80;67.70
46816;DHT22;32787;53.316;8.670;2022-09-21T12:05:44;15.20;70.80
46816;DHT22;32787;53.316;8.670;2022-09-21T12:13:41;14.80;73.00
46816;DHT22;32787;53.316;8.670;2022-09-21T12:21:30;15.00;74.90
46816;DHT22;32787;53.316;8.670;2022-09-21T12:24:03;15.00;75.60
46816;DHT22;32787;53.316;8.670;2022-09-21T12:26:40;15.00;74.70
46816;DHT22;32787;53.316;8.670;2022-09-21T12:29:14;15.20;72.70
46816;DHT22;32787;53.316;8.670;2022-09-21T12:34:36;15.00;74.90
46816;DHT22;32787;53.316;8.670;2022-09-21T12:39:46;15.30;76.20
46816;DHT22;32787;53.316;8.670;2022-09-21T12:42:29;15.30;76.60
46816;DHT22;32787;53.316;8.670;2022-09-21T12:45:22;15.30;75.80
46816;DHT22;32787;53.316;8.670;2022-09-21T12:50:45;15.20;74.20
46816;DHT22;32787;53.316;8.670;2022-09-21T12:53:21;15.10;74.50
46816;DHT22;32787;53.316;8.670;2022-09-21T12:58:55;14.90;72.00
46816;DHT22;32787;53.316;8.670;2022-09-21T13:01:34;15.20;70.00
46816;DHT22;32787;53.316;8.670;2022-09-21T13:09:32;16.50;66.10
46816;DHT22;32787;53.316;8.670;2022-09-21T13:12:01;16.30;65.10
46816;DHT22;32787;53.316;8.670;2022-09-21T13:14:34;16.20;65.30
46816;DHT22;32787;53.316;8.670;2022-09-21T13:17:03;16.30;65.80
46816;DHT22;32787;53.316;8.670;2022-09-21T13:19:31;16.20;64.50
46816;DHT22;32787;53.316;8.670;2022-09-21T13:24:56;16.50;62.50
46816;DHT22;32787;53.316;8.670;2022-09-21T13:38:27;16.40;64.10
46816;DHT22;32787;53.316;8.670;2022-09-21T13:41:03;16.30;66.70
46816;DHT22;32787;53.316;8.670;2022-09-21T13:52:01;15.60;72.20
46816;DHT22;32787;53.316;8.670;2022-09-21T13:54:50;15.40;72.70
46816;DHT22;32787;53.316;8.670;2022-09-21T13:57:36;15.30;72.60
46816;DHT22;32787;53.316;8.670;2022-09-21T14:07:41;14.90;75.40
46816;DHT22;32787;53.316;8.670;2022-09-21T14:10:08;14.90;75.70
46816;DHT22;32787;53.316;8.670;2022-09-21T14:12:41;14.80;76.20
46816;DHT22;32787;53.316;8.670;2022-09-21T14:17:42;14.80;77.10
46816;DHT22;32787;53.316;8.670;2022-09-21T14:20:28;15.00;77.90
46816;DHT22;32787;53.316;8.670;2022-09-21T14:25:57;15.30;77.40
46816;DHT22;32787;53.316;8.670;2022-09-21T14:28:33;15.40;74.70
46816;DHT22;32787;53.316;8.670;2022-09-21T14:31:05;15.80;73.40
46816;DHT22;32787;53.316;8.670;2022-09-21T14:33:52;15.90;69.30
46816;DHT22;32787;53.316;8.670;2022-09-21T14:36:23;16.20;63.90
46816;DHT22;32787;53.316;8.670;2022-09-21T14:38:54;16.60;61.40
46816;DHT22;32787;53.316;8.670;2022-09-21T14:41:23;16.80;63.10
46816;DHT22;32787;53.316;8.670;2022-09-21T14:43:52;16.40;61.40
46816;DHT22;32787;53.316;8.670;2022-09-21T15:05:47;17.20;57.20
46816;DHT22;32787;53.316;8.670;2022-09-21T15:11:31;17.30;57.10
46816;DHT22;32787;53.316;8.670;2022-09-21T15:16:48;17.00;58.10
46816;DHT22;32787;53.316;8.670;2022-09-21T15:21:50;16.80;61.50
46816;DHT22;32787;53.316;8.670;2022-09-21T15:24:26;17.00;57.20
46816;DHT22;32787;53.316;8.670;2022-09-21T15:27:04;16.60;60.50
46816;DHT22;32787;53.316;8.670;2022-09-21T15:29:31;16.80;59.10
46816;DHT22;32787;53.316;8.670;2022-09-21T15:31:59;16.90;58.30
46816;DHT22;32787;53.316;8.670;2022-09-21T15:34:24;16.90;57.00
46816;DHT22;32787;53.316;8.670;2022-09-21T15:36:51;16.90;56.80
46816;DHT22;32787;53.316;8.670;2022-09-21T15:39:28;16.70;59.20
46816;DHT22;32787;53.316;8.670;2022-09-21T15:44:36;16.50;58.70
46816;DHT22;32787;53.316;8.670;2022-09-21T15:47:05;16.30;61.50
46816;DHT22;32787;53.316;8.670;2022-09-21T15:49:33;16.30;61.10
46816;DHT22;32787;53.316;8.670;2022-09-21T15:52:26;16.20;62.80
46816;DHT22;32787;53.316;8.670;2022-09-21T15:55:06;16.10;62.30
46816;DHT22;32787;53.316;8.670;2022-09-21T15:57:36;16.10;62.90
46816;DHT22;32787;53.316;8.670;2022-09-21T16:02:47;16.50;60.20
46816;DHT22;32787;53.316;8.670;2022-09-21T16:05:15;17.20;59.10
46816;DHT22;32787;53.316;8.670;2022-09-21T16:07:45;18.20;54.50
46816;DHT22;32787;53.316;8.670;2022-09-21T16:13:24;18.30;52.70
46816;DHT22;32787;53.316;8.670;2022-09-21T16:16:11;17.80;54.90
46816;DHT22;32787;53.316;8.670;2022-09-21T16:18:47;17.10;59.70
46816;DHT22;32787;53.316;8.670;2022-09-21T16:24:07;16.20;62.80
46816;DHT22;32787;53.316;8.670;2022-09-21T16:26:36;15.70;65.00
46816;DHT22;32787;53.316;8.670;2022-09-21T16:29:23;15.50;64.90
46816;DHT22;32787;53.316;8.670;2022-09-21T16:31:51;15.30;67.40
46816;DHT22;32787;53.316;8.670;2022-09-21T16:34:38;15.10;67.20
46816;DHT22;32787;53.316;8.670;2022-09-21T16:37:33;14.80;69.30
46816;DHT22;32787;53.316;8.670;2022-09-21T16:40:01;14.60;70.30
46816;DHT22;32787;53.316;8.670;2022-09-21T16:42:27;14.30;71.60
46816;DHT22;32787;53.316;8.670;2022-09-21T16:44:57;14.20;72.70
46816;DHT22;32787;53.316;8.670;2022-09-21T16:47:25;14.00;73.50
46816;DHT22;32787;53.316;8.670;2022-09-21T16:49:56;13.90;74.90
46816;DHT22;32787;53.316;8.670;2022-09-21T16:52:25;13.70;76.80
46816;DHT22;32787;53.316;8.670;2022-09-21T16:54:53;13.60;76.60
46816;DHT22;32787;53.316;8.670;2022-09-21T16:57:21;13.50;77.10
46816;DHT22;32787;53.316;8.670;2022-09-21T16:59:47;13.30;77.30
46816;DHT22;32787;53.316;8.670;2022-09-21T17:02:15;13.30;77.80
46816;DHT22;32787;53.316;8.670;2022-09-21T17:04:41;13.20;78.10
46816;DHT22;32787;53.316;8.670;2022-09-21T17:07:09;13.10;78.20
46816;DHT22;32787;53.316;8.670;2022-09-21T17:09:38;12.90;79.10
46816;DHT22;32787;53.316;8.670;2022-09-21T17:12:06;12.80;79.00
46816;DHT22;32787;53.316;8.670;2022-09-21T17:14:33;12.70;79.60
46816;DHT22;32787;53.316;8.670;2022-09-21T17:17:11;12.60;80.70
46816;DHT22;32787;53.316;8.670;2022-09-21T17:19:37;12.50;80.90
46816;DHT22;32787;53.316;8.670;2022-09-21T17:22:05;12.40;81.30
46816;DHT22;32787;53.316;8.670;2022-09-21T17:24:31;12.30;82.10
46816;DHT22;32787;53.316;8.670;2022-09-21T17:26:57;12.30;82.10
46816;DHT22;32787;53.316;8.670;2022-09-21T17:29:25;12.30;82.50
46816;DHT22;32787;53.316;8.670;2022-09-21T17:31:56;12.10;82.70
46816;DHT22;32787;53.316;8.670;2022-09-21T17:34:27;12.00;82.80
46816;DHT22;32787;53.316;8.670;2022-09-21T17:36:53;12.00;82.80
46816;DHT22;32787;53.316;8.670;2022-09-21T17:39:22;11.90;83.00
46816;DHT22;32787;53.316;8.670;2022-09-21T17:41:50;11.80;83.00
46816;DHT22;32787;53.316;8.670;2022-09-21T17:47:27;11.50;83.40
46816;DHT22;32787;53.316;8.670;2022-09-21T17:50:01;11.40;83.60
46816;DHT22;32787;53.316;8.670;2022-09-21T17:52:30;11.30;83.70
46816;DHT22;32787;53.316;8.670;2022-09-21T17:55:15;11.30;83.90
46816;DHT22;32787;53.316;8.670;2022-09-21T17:57:58;11.20;84.40
46816;DHT22;32787;53.316;8.670;2022-09-21T18:03:19;11.10;84.70
46816;DHT22;32787;53.316;8.670;2022-09-21T18:05:47;10.90;84.70
46816;DHT22;32787;53.316;8.670;2022-09-21T18:08:13;10.90;85.20
46816;DHT22;32787;53.316;8.670;2022-09-21T18:10:43;10.90;85.20
46816;DHT22;32787;53.316;8.670;2022-09-21T18:13:21;10.90;85.40
46816;DHT22;32787;53.316;8.670;2022-09-21T18:19:34;10.90;85.90
46816;DHT22;32787;53.316;8.670;2022-09-21T18:22:32;10.90;85.80
46816;DHT22;32787;53.316;8.670;2022-09-21T18:25:00;10.80;85.80
46816;DHT22;32787;53.316;8.670;2022-09-21T18:27:30;10.70;86.00
46816;DHT22;32787;53.316;8.670;2022-09-21T18:29:57;10.70;86.10
46816;DHT22;32787;53.316;8.670;2022-09-21T18:32:47;10.80;86.30
46816;DHT22;32787;53.316;8.670;2022-09-21T18:38:21;10.70;86.10
46816;DHT22;32787;53.316;8.670;2022-09-21T18:46:49;10.50;87.20
46816;DHT22;32787;53.316;8.670;2022-09-21T18:49:47;10.60;86.70
46816;DHT22;32787;53.316;8.670;2022-09-21T18:52:17;10.20;87.30
46816;DHT22;32787;53.316;8.670;2022-09-21T18:54:44;10.40;87.40
46816;DHT22;32787;53.316;8.670;2022-09-21T18:57:11;10.30;87.20
46816;DHT22;32787;53.316;8.670;2022-09-21T18:59:38;10.10;87.20
46816;DHT22;32787;53.316;8.670;2022-09-21T19:02:14;9.90;87.50
46816;DHT22;32787;53.316;8.670;2022-09-21T19:04:43;9.90;87.90
46816;DHT22;32787;53.316;8.670;2022-09-21T19:10:00;9.90;87.70
46816;DHT22;32787;53.316;8.670;2022-09-21T19:18:41;9.90;88.10
46816;DHT22;32787;53.316;8.670;2022-09-21T19:21:24;9.90;88.10
46816;DHT22;32787;53.316;8.670;2022-09-21T19:26:48;10.30;87.60
46816;DHT22;32787;53.316;8.670;2022-09-21T19:29:27;10.10;87.20
46816;DHT22;32787;53.316;8.670;2022-09-21T19:31:56;9.90;87.30
46816;DHT22;32787;53.316;8.670;2022-09-21T19:34:21;10.00;87.60
46816;DHT22;32787;53.316;8.670;2022-09-21T19:36:47;9.80;88.00
46816;DHT22;32787;53.316;8.670;2022-09-21T19:39:13;9.80;87.80
46816;DHT22;32787;53.316;8.670;2022-09-21T19:47:32;9.40;88.20
46816;DHT22;32787;53.316;8.670;2022-09-21T19:50:16;9.50;88.60
46816;DHT22;32787;53.316;8.670;2022-09-21T19:52:43;9.40;88.10